Time;durP1;ratioP1;P1;durP2;ratioP2;P2;SDS_P1;SDS_P2;PMS_P1;PMS_P2;Temp;Humidity;BMP_temperature;BMP_pressure;BME280_temperature;BME280_humidity;BME280_pressure;Samples;Min_cycle;Max_cycle;Signal;HPM_P1;HPM_P2
2022/06/25 00:01:48;;;;;;;14.37;13.90;;;17.20;65.50;;;;;;5113949;28;20408;-78
2022/06/25 00:06:58;;;;;;;15.40;14.80;;;17.20;64.70;;;;;;5113703;28;20181;-78
2022/06/25 00:09:24;;;;;;;14.33;13.73;;;17.20;64.70;;;;;;5095089;28;20412;-78
2022/06/25 00:14:34;;;;;;;15.80;15.20;;;17.20;65.20;;;;;;5117660;28;20227;-79
2022/06/25 00:16:59;;;;;;;15.20;14.50;;;17.10;63.80;;;;;;5096063;28;20459;-79
2022/06/25 00:19:25;;;;;;;14.80;14.30;;;17.10;63.50;;;;;;5114411;28;20400;-79
2022/06/25 00:21:51;;;;;;;15.00;14.50;;;17.10;64.80;;;;;;5095187;28;20178;-77
2022/06/25 00:24:17;;;;;;;14.60;14.10;;;17.10;63.60;;;;;;5095013;28;20180;-78
2022/06/25 00:26:43;;;;;;;14.80;14.30;;;17.10;64.40;;;;;;5095007;28;20408;-80
2022/06/25 00:29:10;;;;;;;14.90;14.40;;;17.10;64.80;;;;;;5113567;28;20202;-79
2022/06/25 00:31:36;;;;;;;15.10;14.20;;;17.00;64.40;;;;;;5095789;28;20991;-79
2022/06/25 00:34:03;;;;;;;15.30;14.70;;;17.00;64.90;;;;;;5096680;28;20439;-79
2022/06/25 00:36:28;;;;;;;15.00;14.20;;;17.00;64.60;;;;;;5096649;28;20550;-79
2022/06/25 00:38:55;;;;;;;15.20;14.70;;;17.00;64.40;;;;;;5097536;28;20954;-78
2022/06/25 00:41:21;;;;;;;15.63;14.83;;;17.00;65.40;;;;;;5114708;28;20531;-79
2022/06/25 00:43:46;;;;;;;15.20;14.60;;;17.00;64.70;;;;;;5095638;28;20423;-79
2022/06/25 00:46:12;;;;;;;15.20;14.70;;;17.00;64.90;;;;;;5115172;28;20403;-79
2022/06/25 00:48:38;;;;;;;15.20;14.70;;;17.00;65.10;;;;;;5096494;28;20197;-78
2022/06/25 00:51:13;;;;;;;14.70;14.20;;;17.00;64.90;;;;;;5095035;28;20193;-79
2022/06/25 00:53:44;;;;;;;14.63;14.13;;;17.00;65.00;;;;;;5113361;28;20545;-79
2022/06/25 00:56:11;;;;;;;14.60;14.10;;;17.00;64.50;;;;;;5095649;28;20513;-79
2022/06/25 00:58:45;;;;;;;14.33;13.83;;;17.00;65.40;;;;;;5094550;28;20408;-78
2022/06/25 01:01:13;;;;;;;14.13;13.63;;;17.00;65.50;;;;;;5093994;28;20408;-78
2022/06/25 01:03:39;;;;;;;14.90;14.20;;;17.00;65.20;;;;;;5093804;28;20411;-79
2022/06/25 01:06:06;;;;;;;15.13;14.43;;;17.00;63.90;;;;;;5094184;28;20785;-79
2022/06/25 01:08:34;;;;;;;14.70;14.20;;;17.00;64.00;;;;;;5094455;28;20272;-78
2022/06/25 01:11:10;;;;;;;14.67;14.17;;;17.00;65.20;;;;;;5095847;28;20441;-79
2022/06/25 01:17:15;;;;;;;14.90;14.30;;;17.00;65.10;;;;;;5116127;28;20508;-77
2022/06/25 01:19:41;;;;;;;14.90;14.40;;;17.00;66.30;;;;;;5097848;28;20403;-79
2022/06/25 01:22:35;;;;;;;15.70;15.10;;;17.00;65.30;;;;;;5098096;28;20412;-80
2022/06/25 01:25:01;;;;;;;15.50;14.87;;;17.00;63.70;;;;;;5116295;28;20408;-77
2022/06/25 01:27:34;;;;;;;14.40;13.90;;;16.90;64.70;;;;;;5098002;28;20416;-78
2022/06/25 01:30:00;;;;;;;15.80;15.10;;;16.90;63.30;;;;;;5098061;28;20226;-78
2022/06/25 01:32:26;;;;;;;15.37;14.77;;;17.00;64.90;;;;;;5097690;28;20412;-78
2022/06/25 01:34:51;;;;;;;15.80;15.00;;;16.90;63.80;;;;;;5098171;28;20625;-79
2022/06/25 01:37:17;;;;;;;15.30;14.60;;;17.00;64.30;;;;;;5116314;28;20213;-78
2022/06/25 01:39:43;;;;;;;15.60;15.00;;;16.90;63.70;;;;;;5097910;28;20178;-78
2022/06/25 01:42:58;;;;;;;15.10;14.60;;;17.00;64.40;;;;;;5097549;28;20441;-79
2022/06/25 01:44:58;;;;;;;15.10;14.60;;;16.90;64.00;;;;;;5115662;28;20442;-78
2022/06/25 01:47:23;;;;;;;15.90;15.20;;;16.90;63.80;;;;;;5097496;28;20935;-78
2022/06/25 01:49:49;;;;;;;16.13;15.53;;;16.90;64.00;;;;;;5116104;28;20411;-78
2022/06/25 01:52:14;;;;;;;15.97;15.37;;;16.90;63.40;;;;;;5097344;28;20077;-78
2022/06/25 01:54:49;;;;;;;15.83;15.23;;;16.90;63.10;;;;;;5097593;28;20419;-78
2022/06/25 01:57:15;;;;;;;15.43;14.83;;;16.90;63.20;;;;;;5096745;28;20209;-78
2022/06/25 01:59:41;;;;;;;16.13;14.73;;;16.80;62.60;;;;;;5097297;28;20422;-78
2022/06/25 02:02:06;;;;;;;15.90;15.30;;;16.80;63.30;;;;;;5096976;28;20201;-78
2022/06/25 02:04:44;;;;;;;15.97;15.37;;;16.80;63.70;;;;;;5097557;28;20181;-78
2022/06/25 02:07:32;;;;;;;16.10;15.50;;;16.80;63.90;;;;;;5097249;28;20644;-79
2022/06/25 02:10:09;;;;;;;15.23;14.70;;;16.80;63.90;;;;;;5097368;28;20407;-77
2022/06/25 02:12:35;;;;;;;16.00;15.40;;;16.80;64.30;;;;;;5097221;28;20415;-78
2022/06/25 02:18:24;;;;;;;16.20;15.60;;;16.80;63.60;;;;;;5115257;28;20224;-78
2022/06/25 02:20:51;;;;;;;16.50;15.90;;;16.80;63.30;;;;;;5096898;28;20408;-77
2022/06/25 02:23:20;;;;;;;16.57;15.97;;;16.80;62.80;;;;;;5095914;28;20411;-77
2022/06/25 02:25:50;;;;;;;16.37;15.77;;;16.80;63.40;;;;;;5096942;28;20415;-77
2022/06/25 02:28:17;;;;;;;15.60;14.80;;;16.80;62.30;;;;;;5097023;28;20782;-79
2022/06/25 02:30:47;;;;;;;15.83;15.27;;;16.80;63.00;;;;;;5096553;28;20408;-80
2022/06/25 09:39:55;;;;;;;17.60;16.60;;;22.90;33.10;;;;;;3428054;25;20482;-74
2022/06/25 09:42:32;;;;;;;17.80;17.00;;;23.00;33.70;;;;;;5117750;27;20790;-76
2022/06/25 09:45:09;;;;;;;18.27;17.63;;;23.20;33.90;;;;;;5118237;27;20481;-76
2022/06/25 09:47:43;;;;;;;19.13;18.43;;;23.30;34.20;;;;;;5117797;27;20937;-75
2022/06/25 09:50:17;;;;;;;17.10;16.50;;;23.40;32.80;;;;;;5117450;27;20505;-75
2022/06/25 09:53:01;;;;;;;17.60;17.00;;;23.50;31.10;;;;;;5117413;27;20502;-75
2022/06/25 09:55:31;;;;;;;17.60;16.90;;;23.60;30.10;;;;;;5117593;27;20449;-76
2022/06/25 09:58:00;;;;;;;18.40;17.60;;;23.70;29.70;;;;;;5117642;27;20485;-76
2022/06/25 10:00:27;;;;;;;17.83;17.13;;;23.70;31.30;;;;;;5117333;27;20442;-75
2022/06/25 10:02:56;;;;;;;17.57;16.97;;;23.80;29.90;;;;;;5117402;27;20443;-75
2022/06/25 10:05:30;;;;;;;17.97;17.27;;;23.90;28.50;;;;;;5117137;27;20403;-74
2022/06/25 10:08:04;;;;;;;17.10;16.50;;;24.00;27.90;;;;;;5117274;27;20415;-74
2022/06/25 10:11:10;;;;;;;18.03;17.30;;;23.90;28.10;;;;;;5117304;27;20470;-73
2022/06/25 10:13:36;;;;;;;19.33;18.33;;;24.00;27.10;;;;;;5119415;27;20415;-76
2022/06/25 10:16:02;;;;;;;16.60;16.00;;;24.10;28.50;;;;;;5117977;27;20403;-73
2022/06/25 10:18:28;;;;;;;16.10;15.60;;;23.80;26.00;;;;;;5117521;27;20218;-76
2022/06/25 10:20:56;;;;;;;17.50;16.83;;;23.80;26.30;;;;;;5117754;27;20422;-79
2022/06/25 10:23:22;;;;;;;17.50;16.70;;;23.90;24.30;;;;;;5118071;27;20430;-79
2022/06/25 10:25:48;;;;;;;17.10;16.40;;;23.80;26.90;;;;;;5117297;27;20959;-79
2022/06/25 10:28:16;;;;;;;17.10;16.07;;;23.80;27.90;;;;;;5117647;27;20787;-79
2022/06/25 10:30:46;;;;;;;16.43;15.83;;;23.90;26.10;;;;;;5111191;28;20428;-78
2022/06/25 10:33:17;;;;;;;17.07;16.47;;;23.80;26.70;;;;;;5096354;28;20426;-79
2022/06/25 10:35:44;;;;;;;16.80;16.20;;;23.90;27.10;;;;;;5096750;28;20404;-79
2022/06/25 10:38:14;;;;;;;16.37;15.80;;;24.00;27.50;;;;;;5096379;28;20503;-79
2022/06/25 10:43:56;;;;;;;16.23;15.63;;;24.10;26.60;;;;;;5113606;28;20402;-79
2022/06/25 10:46:28;;;;;;;17.10;16.50;;;24.20;24.50;;;;;;5096822;28;20407;-78
2022/06/25 10:48:56;;;;;;;16.90;16.30;;;23.90;25.70;;;;;;5096575;28;20895;-78
2022/06/25 10:51:46;;;;;;;17.00;16.30;;;23.90;27.00;;;;;;5096456;28;20408;-79
2022/06/25 10:54:27;;;;;;;16.67;16.00;;;24.10;27.10;;;;;;5096677;28;20770;-79
2022/06/25 10:56:54;;;;;;;17.73;16.83;;;24.10;26.10;;;;;;5095066;28;20539;-77
2022/06/25 10:59:32;;;;;;;16.63;16.03;;;24.20;26.30;;;;;;5096359;28;20412;-79
2022/06/25 11:02:09;;;;;;;17.20;16.30;;;24.30;24.90;;;;;;5095969;28;20447;-78
2022/06/25 11:04:36;;;;;;;15.73;15.03;;;24.40;26.30;;;;;;5096280;28;20411;-79
2022/06/25 11:07:19;;;;;;;17.23;16.60;;;24.50;25.40;;;;;;5095907;28;20585;-77
2022/06/25 11:09:54;;;;;;;16.00;15.40;;;24.60;24.80;;;;;;5096223;28;20438;-83
2022/06/25 11:12:20;;;;;;;16.27;15.57;;;24.50;23.60;;;;;;5095558;28;20403;-82
2022/06/25 11:15:01;;;;;;;14.80;14.30;;;24.50;24.20;;;;;;5114218;28;20443;-79
2022/06/25 11:17:27;;;;;;;15.80;15.20;;;24.50;24.10;;;;;;5096073;28;20455;-80
2022/06/25 11:19:53;;;;;;;16.90;16.20;;;24.60;24.80;;;;;;5114311;28;20403;-81
2022/06/25 11:22:18;;;;;;;15.70;15.13;;;24.60;24.80;;;;;;5097254;28;20412;-84
2022/06/25 11:30:27;;;;;;;17.00;16.30;;;24.60;25.80;;;;;;5114402;28;20414;-80
2022/06/25 11:32:54;;;;;;;16.50;15.90;;;24.90;24.20;;;;;;5095913;28;20444;-80
2022/06/25 11:35:22;;;;;;;16.30;15.70;;;24.90;24.90;;;;;;5096917;28;20410;-82
2022/06/25 11:37:48;;;;;;;17.00;16.40;;;25.10;23.50;;;;;;5096156;28;20455;-80
2022/06/25 11:40:15;;;;;;;16.60;15.90;;;25.10;24.50;;;;;;5096749;28;20431;-76
2022/06/25 11:42:42;;;;;;;16.10;15.60;;;25.20;25.20;;;;;;5114078;28;20174;-80
2022/06/25 11:45:09;;;;;;;15.70;15.20;;;25.10;22.60;;;;;;5096445;28;20435;-80
2022/06/25 11:47:35;;;;;;;15.67;15.17;;;25.10;22.20;;;;;;5096705;28;20481;-80
2022/06/25 11:50:06;;;;;;;15.50;15.00;;;24.90;22.30;;;;;;5095855;28;20923;-81
2022/06/25 11:52:32;;;;;;;15.90;15.37;;;24.70;21.30;;;;;;5095901;28;20493;-82
2022/06/25 11:54:57;;;;;;;15.87;15.27;;;24.60;22.00;;;;;;5095580;28;20439;-77
2022/06/25 11:57:43;;;;;;;16.13;15.53;;;24.60;23.20;;;;;;5096066;28;20213;-81
2022/06/25 12:00:13;;;;;;;16.17;15.60;;;24.60;23.10;;;;;;5095802;28;20173;-76
2022/06/25 12:02:40;;;;;;;15.70;15.00;;;24.60;23.20;;;;;;5094578;28;20460;-74
2022/06/25 12:05:12;;;;;;;15.00;14.50;;;24.80;23.60;;;;;;5094141;28;21009;-80
2022/06/25 12:08:21;;;;;;;15.13;14.53;;;24.70;21.50;;;;;;5094898;28;20411;-77
2022/06/25 12:10:48;;;;;;;15.57;14.93;;;24.80;23.20;;;;;;5094634;28;20428;-77
2022/06/25 12:13:18;;;;;;;15.20;14.60;;;24.90;21.90;;;;;;5095158;28;20438;-77
2022/06/25 12:15:44;;;;;;;15.30;14.70;;;24.90;21.40;;;;;;5094538;28;20812;-75
2022/06/25 12:18:10;;;;;;;14.97;14.27;;;24.90;21.20;;;;;;5094202;28;20459;-75
2022/06/25 12:20:53;;;;;;;15.80;15.10;;;24.90;21.70;;;;;;5094270;28;20395;-77
2022/06/25 12:23:18;;;;;;;14.13;13.70;;;25.10;20.70;;;;;;5097374;28;20423;-75
2022/06/25 12:25:44;;;;;;;13.77;13.27;;;25.20;21.70;;;;;;5094409;28;20419;-80
2022/06/25 12:28:10;;;;;;;13.77;13.07;;;25.10;21.30;;;;;;5113594;28;20538;-79
2022/06/25 12:30:36;;;;;;;13.30;12.90;;;25.10;21.30;;;;;;5095296;28;20169;-79
2022/06/25 12:33:09;;;;;;;13.10;12.70;;;25.20;21.20;;;;;;5094197;28;20251;-80
2022/06/25 12:35:40;;;;;;;13.43;12.93;;;25.30;20.30;;;;;;5094904;28;20570;-79
2022/06/25 12:38:10;;;;;;;14.30;13.53;;;25.30;20.10;;;;;;5093731;28;20455;-81
2022/06/25 12:40:41;;;;;;;14.83;14.33;;;25.30;20.90;;;;;;5113177;28;20430;-79
2022/06/25 12:43:11;;;;;;;14.07;13.30;;;25.40;20.30;;;;;;5095700;28;20404;-79
2022/06/25 12:45:40;;;;;;;13.60;13.20;;;25.50;19.50;;;;;;5095245;28;20416;-79
2022/06/25 12:48:10;;;;;;;14.03;13.50;;;25.50;20.30;;;;;;5094436;28;20412;-80
2022/06/25 12:50:46;;;;;;;14.37;13.87;;;25.50;18.30;;;;;;5094961;28;20502;-79
2022/06/25 12:53:16;;;;;;;14.70;14.10;;;25.40;20.40;;;;;;5094854;28;20419;-79
2022/06/25 12:56:04;;;;;;;14.47;13.90;;;25.40;19.80;;;;;;5093768;28;20424;-80
2022/06/25 12:58:38;;;;;;;14.43;13.93;;;25.60;18.80;;;;;;5094442;28;20423;-79
2022/06/25 13:01:18;;;;;;;14.37;13.97;;;25.70;19.10;;;;;;5095167;28;20919;-80
2022/06/25 13:03:45;;;;;;;14.70;14.20;;;25.70;18.40;;;;;;5094727;28;20450;-79
2022/06/25 13:06:11;;;;;;;14.97;14.27;;;25.70;18.70;;;;;;5094215;28;20447;-81
2022/06/25 13:08:37;;;;;;;14.37;13.87;;;25.70;18.90;;;;;;5098888;28;20484;-78
2022/06/25 13:11:02;;;;;;;14.87;14.37;;;25.70;19.20;;;;;;5099097;28;20174;-80
2022/06/25 13:13:28;;;;;;;14.93;14.10;;;25.60;18.10;;;;;;5098496;28;20178;-80
2022/06/25 13:15:54;;;;;;;14.27;13.77;;;25.40;18.70;;;;;;5099053;28;20178;-82
2022/06/25 13:18:19;;;;;;;14.77;13.77;;;25.40;19.40;;;;;;5098707;28;20202;-81
2022/06/25 13:20:46;;;;;;;16.20;14.83;;;25.50;19.00;;;;;;5099139;28;20174;-80
2022/06/25 13:23:13;;;;;;;14.00;13.50;;;25.60;18.90;;;;;;5098244;28;20530;-79
2022/06/25 13:25:38;;;;;;;14.20;13.70;;;25.60;18.10;;;;;;5097407;28;20419;-79
2022/06/25 13:28:05;;;;;;;14.60;14.10;;;25.60;18.80;;;;;;5121364;27;20415;-80
2022/06/25 13:30:31;;;;;;;14.50;13.93;;;25.60;18.00;;;;;;5112865;28;20185;-79
2022/06/25 13:32:56;;;;;;;14.50;14.00;;;25.90;18.40;;;;;;5114347;28;20426;-81
2022/06/25 13:35:22;;;;;;;13.67;13.17;;;26.00;18.60;;;;;;5103314;27;20457;-78
2022/06/25 13:37:48;;;;;;;14.60;14.10;;;26.00;17.80;;;;;;5135124;27;20213;-78
2022/06/25 13:40:16;;;;;;;15.00;14.20;;;26.20;17.60;;;;;;5112456;27;20190;-80
2022/06/25 13:42:45;;;;;;;14.73;14.13;;;26.60;16.70;;;;;;5116292;28;20168;-79
